Terminal Aerodrome Forecast
Issued by NWS

Current Version | Previous Version | Text Only | Print | Product List | Glossary On
Versions: 1 2 3 4 5 6 7 8 9 10 11 12 13 14 15 16 17 18 19
000
FTUS43 KMPX 171522 AAA
TAFRWF
TAF AMD
KRWF 171522Z 1715/1812 03003KT 5SM BR SCT009 BKN100
     FM171800 00000KT P6SM BKN012
      TEMPO 1718/1721 SCT012 BKN150
     FM172100 00000KT P6SM OVC015
     FM180000 19008KT P6SM SCT100=

USA.gov is the U.S. government's official web portal to all federal, state and local government web resources and services.